ADDS METAR Data INFO
IDs: Format: Raw Decoded Include TAF

Data at: 1220 UTC 19 Nov 2017

METAR for:KLUK (Cincinnati/Lunken Ar, OH, US)
Text:KLUK 191153Z 28011G14KT 10SM OVC045 04/M01 A2995 RMK AO2 SLP141 60000 70065 T00441011 10056 20044 53020
Temperature: 4.4°C ( 40°F)
Dewpoint: -1.1°C ( 30°F) [RH = 67%]
Pressure (altimeter):29.95 inches Hg (1014.3 mb) [Sea level pressure: 1014.1 mb]
Winds:from the W (280 degrees) at 13 MPH (11 knots; 5.7 m/s) gusting to 16 MPH (14 knots; 7.2 m/s)
Visibility:10 or more sm (16+ km)
Ceiling:4500 feet AGL
Clouds: overcast cloud deck at 4500 feet AGL